Mount Vernon, North Carolina
Current Conditions -  °F | °C
As of 4:35 AM on Thursday 23 Oct 2014 (Local Time) from KRUQ Reporting Station
Clear Clear  
Wind Chill: 40°   Ceiling: Unl
Heat Index: 40°   Visibility: 10mi
Dew Point: 38°   Wind: 3mph
Humidity: 92%   Direction: 300°WNW
Pressure: 30.05"   Gusts: NA
Location:  35.7427°N, 80.712°W
Report Text: KRUQ 230835Z AUTO 30003KT 10SM CLR 05/03 A3005 RMK AO2 T00450033
Loading
Personal Weather Stations






























Interactive Weather Map
Tropical Storm Tracking
New forecast layout! Learn more

10-Day Weather Forecast

Advertisements
Track Severe Weather on mobile